Time;durP1;ratioP1;P1;durP2;ratioP2;P2;SDS_P1;SDS_P2;PMS_P1;PMS_P2;Temp;Humidity;BMP_temperature;BMP_pressure;BME280_temperature;BME280_humidity;BME280_pressure;Samples;Min_cycle;Max_cycle;Signal;HPM_P1;HPM_P2
2023/03/17 00:01:33;;;;;;;3.42;1.88;;;;;;;17.71;37.90;100862.66;5049762;28;20041;-24
2023/03/17 00:04:00;;;;;;;3.35;2.17;;;;;;;17.69;38.21;100862.81;5051322;28;20095;-25
2023/03/17 00:06:32;;;;;;;2.72;1.70;;;;;;;17.68;38.23;100863.78;5050351;28;20498;-24
2023/03/17 00:08:59;;;;;;;4.88;2.10;;;;;;;17.66;38.20;100865.78;5051167;28;20088;-25
2023/03/17 00:11:26;;;;;;;4.28;2.33;;;;;;;17.66;37.90;100864.97;5051355;28;20062;-24
2023/03/17 00:13:53;;;;;;;3.25;1.95;;;;;;;17.65;37.84;100874.84;5052129;28;20475;-26
2023/03/17 00:16:23;;;;;;;3.78;2.08;;;;;;;17.65;38.58;100861.44;5050978;28;20474;-25
2023/03/17 00:18:52;;;;;;;4.45;2.05;;;;;;;17.63;38.24;100860.72;5048771;28;20080;-25
2023/03/17 00:21:28;;;;;;;2.70;2.10;;;;;;;17.60;38.37;100847.63;5050935;28;20053;-26
2023/03/17 00:23:55;;;;;;;4.68;1.75;;;;;;;17.61;38.04;100840.41;5050717;28;20049;-26
2023/03/17 00:26:23;;;;;;;3.65;2.30;;;;;;;17.60;38.07;100834.22;5050793;28;20049;-25
2023/03/17 00:28:50;;;;;;;3.38;2.00;;;;;;;17.59;38.18;100829.88;5048546;28;20447;-24
2023/03/17 00:31:20;;;;;;;3.78;2.00;;;;;;;17.59;38.49;100845.94;5046390;28;20132;-25
2023/03/17 00:33:49;;;;;;;3.75;1.80;;;;;;;17.58;38.31;100844.25;5043766;28;20084;-25
2023/03/17 00:36:34;;;;;;;4.15;2.17;;;;;;;17.57;38.30;100839.91;5043124;28;21460;-25
2023/03/17 00:39:00;;;;;;;3.10;1.98;;;;;;;17.58;37.92;100835.38;5044330;28;20041;-25
2023/03/17 00:41:28;;;;;;;2.70;1.80;;;;;;;17.56;38.71;100840.88;5041732;28;20068;-25
2023/03/17 00:43:56;;;;;;;3.05;1.83;;;;;;;17.56;38.24;100846.22;5040781;28;20055;-25
2023/03/17 00:46:34;;;;;;;3.58;1.98;;;;;;;17.56;38.08;100850.75;5045616;28;20061;-25
2023/03/17 00:49:19;;;;;;;3.47;1.90;;;;;;;17.54;38.17;100834.00;5043339;28;20064;-25
2023/03/17 00:51:47;;;;;;;2.83;1.70;;;;;;;17.53;38.15;100846.56;5039754;28;20110;-25
2023/03/17 00:54:15;;;;;;;4.72;1.85;;;;;;;17.52;38.48;100839.50;5043969;28;20059;-26
2023/03/17 00:56:43;;;;;;;4.47;1.73;;;;;;;17.50;38.83;100830.78;5042747;28;20048;-25
2023/03/17 00:59:29;;;;;;;3.17;1.75;;;;;;;17.49;38.20;100816.53;5043711;28;20348;-25
2023/03/17 01:01:56;;;;;;;3.28;2.03;;;;;;;17.48;38.16;100801.44;5042819;28;20051;-24
2023/03/17 01:04:22;;;;;;;4.70;2.00;;;;;;;17.48;38.05;100809.47;5044966;28;20045;-25
2023/03/17 01:06:50;;;;;;;4.43;2.10;;;;;;;17.48;38.78;100819.34;5040639;28;20443;-25
2023/03/17 01:09:19;;;;;;;2.95;1.70;;;;;;;17.47;38.75;100823.88;5046015;28;20063;-26
2023/03/17 01:11:47;;;;;;;2.88;1.80;;;;;;;17.46;38.38;100822.19;5051676;28;20377;-26
2023/03/17 01:14:14;;;;;;;3.28;2.05;;;;;;;17.46;38.63;100829.38;5050498;28;20336;-26
2023/03/17 01:16:40;;;;;;;2.97;1.67;;;;;;;17.45;38.37;100831.22;5052012;28;20052;-24
2023/03/17 01:19:11;;;;;;;4.70;2.13;;;;;;;17.46;38.07;100829.38;5048395;28;20425;-26
2023/03/17 01:21:38;;;;;;;2.08;1.55;;;;;;;17.46;38.22;100824.03;5052682;28;20049;-26
2023/03/17 01:24:05;;;;;;;6.15;2.30;;;;;;;17.46;38.04;100824.03;5050927;28;20128;-24
2023/03/17 01:26:31;;;;;;;3.08;1.65;;;;;;;17.44;38.35;100816.13;5049195;28;20052;-25
2023/03/17 01:28:58;;;;;;;4.00;2.00;;;;;;;17.42;38.46;100815.44;5048603;28;20045;-26
2023/03/17 01:31:25;;;;;;;3.15;2.03;;;;;;;17.43;38.23;100814.44;5050231;28;20140;-25
2023/03/17 01:33:52;;;;;;;3.85;1.95;;;;;;;17.41;38.47;100816.44;5051513;28;20049;-25
2023/03/17 01:36:19;;;;;;;2.72;1.42;;;;;;;17.41;38.35;100819.13;5050695;28;20460;-25
2023/03/17 01:38:49;;;;;;;4.10;1.90;;;;;;;17.40;38.70;100809.38;5048460;28;20045;-25
2023/03/17 01:41:17;;;;;;;3.45;1.60;;;;;;;17.38;38.94;100795.31;5047614;28;20072;-24
2023/03/17 01:43:44;;;;;;;3.80;1.73;;;;;;;17.39;38.80;100796.16;5040655;28;20432;-24
2023/03/17 01:46:32;;;;;;;2.72;1.85;;;;;;;17.36;38.29;100799.97;5044609;28;20059;-25
2023/03/17 01:49:23;;;;;;;3.63;2.00;;;;;;;17.35;38.82;100797.44;5043202;28;20095;-25
2023/03/17 01:52:09;;;;;;;2.30;1.52;;;;;;;17.35;38.68;100800.13;5041607;28;20617;-25
2023/03/17 01:54:58;;;;;;;3.80;1.40;;;;;;;17.34;38.95;100785.88;5044260;28;20060;-27
2023/03/17 01:57:35;;;;;;;2.97;1.73;;;;;;;17.33;38.88;100780.69;5042533;28;20076;-26
2023/03/17 02:00:12;;;;;;;4.70;2.05;;;;;;;17.30;38.54;100779.16;5042786;28;20049;-25
2023/03/17 02:02:44;;;;;;;2.78;1.67;;;;;;;17.32;39.16;100784.34;5042150;28;20053;-25
2023/03/17 02:05:14;;;;;;;3.58;1.70;;;;;;;17.31;38.66;100779.97;5044613;28;20131;-26
2023/03/17 02:07:41;;;;;;;2.85;1.73;;;;;;;17.30;39.02;100768.44;5044822;28;20072;-26
2023/03/17 02:10:09;;;;;;;2.97;1.80;;;;;;;17.28;38.78;100779.28;5040634;28;20504;-26
2023/03/17 02:12:35;;;;;;;2.22;1.40;;;;;;;17.28;39.09;100778.44;5045546;28;20069;-26
2023/03/17 02:15:04;;;;;;;2.65;1.52;;;;;;;17.27;38.45;100772.25;5041708;28;20127;-25
2023/03/17 02:17:30;;;;;;;2.00;1.52;;;;;;;17.27;38.79;100766.03;5048343;28;20420;-26
2023/03/17 02:20:31;;;;;;;2.35;1.20;;;;;;;17.25;38.36;100787.63;5047762;28;20053;-25
2023/03/17 02:22:59;;;;;;;3.65;1.77;;;;;;;17.25;38.49;100774.25;5045253;28;20132;-25
2023/03/17 02:25:29;;;;;;;2.22;1.50;;;;;;;17.25;38.72;100768.88;5042867;28;20063;-25
2023/03/17 02:28:00;;;;;;;2.92;1.70;;;;;;;17.24;38.37;100769.84;5047037;28;20041;-26
2023/03/17 02:30:27;;;;;;;2.67;1.58;;;;;;;17.25;39.05;100771.56;5042807;28;20373;-25
2023/03/17 02:32:54;;;;;;;3.03;1.50;;;;;;;17.23;39.21;100760.13;5048096;28;20679;-26
2023/03/17 02:35:22;;;;;;;2.25;1.60;;;;;;;17.25;38.23;100766.22;5045834;28;20064;-24
2023/03/17 02:37:48;;;;;;;3.58;1.77;;;;;;;17.23;38.89;100762.81;5043833;28;20052;-25
2023/03/17 02:40:16;;;;;;;1.63;1.33;;;;;;;17.25;38.55;100763.53;5048045;28;20045;-25
2023/03/17 02:42:43;;;;;;;2.13;1.50;;;;;;;17.24;38.37;100758.31;5044991;28;20428;-26
2023/03/17 02:45:11;;;;;;;2.67;1.45;;;;;;;17.23;38.41;100759.31;5045119;28;20080;-25
2023/03/17 02:47:38;;;;;;;2.53;1.80;;;;;;;17.22;38.41;100758.47;5044548;28;20160;-24
2023/03/17 02:50:08;;;;;;;3.47;1.98;;;;;;;17.23;39.06;100765.50;5045487;28;20128;-24
2023/03/17 02:52:35;;;;;;;2.15;1.40;;;;;;;17.22;38.77;100768.34;5044459;28;20470;-25
2023/03/17 02:55:02;;;;;;;2.63;1.60;;;;;;;17.21;39.09;100766.66;5049464;28;20049;-23
2023/03/17 02:57:29;;;;;;;1.77;1.40;;;;;;;17.21;38.62;100767.50;5042461;28;20448;-24
2023/03/17 02:59:55;;;;;;;2.72;1.40;;;;;;;17.21;38.92;100763.97;5047352;28;20517;-24
2023/03/17 03:02:22;;;;;;;2.53;1.65;;;;;;;17.21;39.21;100772.84;5048790;28;20048;-26
2023/03/17 03:04:49;;;;;;;2.70;1.92;;;;;;;17.21;39.08;100775.53;5047035;28;20049;-25
2023/03/17 03:07:15;;;;;;;2.42;1.65;;;;;;;17.20;38.24;100776.50;5046238;28;20051;-23
2023/03/17 03:09:42;;;;;;;2.15;1.58;;;;;;;17.20;39.04;100773.81;5051595;28;20049;-26
2023/03/17 03:12:09;;;;;;;3.42;1.58;;;;;;;17.20;39.17;100776.50;5054439;28;20067;-25
2023/03/17 03:14:36;;;;;;;2.83;1.48;;;;;;;17.19;38.50;100764.13;5050326;28;20048;-25
2023/03/17 03:17:03;;;;;;;2.78;1.73;;;;;;;17.18;38.89;100761.59;5052132;28;20040;-26
2023/03/17 03:19:29;;;;;;;3.22;1.67;;;;;;;17.17;38.56;100755.41;5051920;28;20045;-25
2023/03/17 03:21:56;;;;;;;2.53;1.50;;;;;;;17.17;38.67;100760.75;5046006;28;20482;-25
2023/03/17 03:24:23;;;;;;;3.22;1.77;;;;;;;17.17;38.81;100759.91;5049072;28;20087;-26
2023/03/17 03:26:49;;;;;;;3.03;1.63;;;;;;;17.17;39.12;100759.91;5050355;28;20049;-25
2023/03/17 03:29:16;;;;;;;2.45;1.42;;;;;;;17.15;38.86;100768.09;5050400;28;20060;-24
2023/03/17 03:31:43;;;;;;;3.15;1.60;;;;;;;17.16;39.02;100764.41;5050360;28;20048;-25
2023/03/17 03:34:09;;;;;;;2.97;1.50;;;;;;;17.15;38.54;100765.41;5051947;28;20380;-26
2023/03/17 03:36:36;;;;;;;1.58;1.23;;;;;;;17.14;39.01;100766.41;5049687;28;20429;-26
2023/03/17 03:39:02;;;;;;;3.10;1.73;;;;;;;17.14;38.56;100771.75;5047362;28;20054;-24
2023/03/17 03:41:29;;;;;;;2.25;1.45;;;;;;;17.14;39.18;100784.31;5039209;28;20049;-23
2023/03/17 03:43:56;;;;;;;6.95;1.90;;;;;;;17.13;38.87;100775.44;5042885;28;20057;-25
2023/03/17 03:46:22;;;;;;;2.65;1.80;;;;;;;17.14;38.77;100782.47;5043561;28;20140;-24
2023/03/17 03:48:49;;;;;;;2.85;1.30;;;;;;;17.12;39.00;100779.09;5045336;28;20140;-24
2023/03/17 03:51:15;;;;;;;2.05;1.45;;;;;;;17.13;38.63;100779.97;5044492;28;20044;-24
2023/03/17 03:53:42;;;;;;;3.45;1.65;;;;;;;17.12;38.18;100772.91;5046055;28;20049;-25
2023/03/17 03:56:09;;;;;;;4.28;1.98;;;;;;;17.11;38.20;100777.41;5042328;28;20095;-24
2023/03/17 03:58:36;;;;;;;2.97;1.55;;;;;;;17.11;38.65;100782.75;5045275;28;20049;-25
2023/03/17 04:01:08;;;;;;;4.22;1.55;;;;;;;17.10;38.65;100785.59;5042915;28;20040;-26
2023/03/17 04:03:36;;;;;;;3.22;1.73;;;;;;;17.09;38.65;100776.72;5040806;28;20329;-25
2023/03/17 04:06:02;;;;;;;2.80;2.03;;;;;;;17.09;38.44;100781.25;5041207;28;20048;-25
2023/03/17 04:08:30;;;;;;;2.08;1.70;;;;;;;17.09;39.14;100782.09;5044805;28;20095;-25
2023/03/17 04:10:57;;;;;;;2.83;1.60;;;;;;;17.09;38.66;100795.47;5044102;28;20076;-24
2023/03/17 04:13:23;;;;;;;2.28;1.42;;;;;;;17.09;38.47;100797.31;5046153;28;20075;-24
2023/03/17 04:15:50;;;;;;;3.50;1.73;;;;;;;17.07;38.53;100792.09;5042977;28;20044;-24
2023/03/17 04:18:17;;;;;;;1.70;1.35;;;;;;;17.07;38.52;100786.72;5046949;28;20056;-24
2023/03/17 04:20:44;;;;;;;4.10;1.85;;;;;;;17.06;38.86;100793.09;5044559;28;20429;-24
2023/03/17 04:23:10;;;;;;;2.05;1.33;;;;;;;17.05;38.96;100786.06;5045961;28;20393;-24
2023/03/17 04:25:37;;;;;;;3.40;1.80;;;;;;;17.05;38.53;100788.72;5042474;28;20037;-25
2023/03/17 04:28:04;;;;;;;2.22;1.33;;;;;;;17.05;38.42;100783.38;5046869;28;20057;-26
2023/03/17 04:30:31;;;;;;;2.15;1.60;;;;;;;17.07;38.50;100791.25;5043915;28;20064;-25
2023/03/17 04:32:58;;;;;;;3.22;1.67;;;;;;;17.06;38.61;100781.53;5043073;28;20600;-25
2023/03/17 04:35:25;;;;;;;2.55;1.45;;;;;;;17.05;38.61;100780.69;5043981;28;20061;-25
2023/03/17 04:37:52;;;;;;;2.20;1.40;;;;;;;17.06;38.56;100782.38;5044608;28;20068;-24
2023/03/17 04:40:19;;;;;;;2.72;1.63;;;;;;;17.06;39.38;100773.50;5043815;28;20079;-24
2023/03/17 04:42:45;;;;;;;2.88;1.58;;;;;;;17.05;38.73;100778.03;5044113;28;20055;-25
2023/03/17 04:45:16;;;;;;;3.17;1.48;;;;;;;17.06;39.16;100782.38;5042961;28;20064;-25
2023/03/17 04:47:44;;;;;;;4.25;1.40;;;;;;;17.06;39.13;100792.25;5043345;28;20061;-24
2023/03/17 04:50:12;;;;;;;3.58;1.63;;;;;;;17.04;38.51;100784.34;5041443;28;20510;-25
2023/03/17 04:52:39;;;;;;;2.83;1.20;;;;;;;17.04;38.98;100784.34;5045113;28;20059;-24
2023/03/17 04:55:07;;;;;;;2.33;1.30;;;;;;;17.03;39.17;100807.59;5046320;28;20055;-24
2023/03/17 04:57:34;;;;;;;1.92;1.45;;;;;;;17.03;38.63;100806.75;5044506;28;20045;-23
2023/03/17 05:00:01;;;;;;;2.25;1.33;;;;;;;17.04;39.05;100800.41;5042277;28;20044;-25
2023/03/17 05:02:28;;;;;;;3.05;1.55;;;;;;;17.03;38.74;100801.41;5038976;28;20435;-26
2023/03/17 05:04:55;;;;;;;1.38;1.20;;;;;;;17.02;38.88;100797.91;5038495;28;20071;-24
2023/03/17 05:07:21;;;;;;;2.50;1.73;;;;;;;17.02;39.23;100805.09;5044812;28;20084;-25
2023/03/17 05:09:48;;;;;;;2.50;1.38;;;;;;;17.02;38.73;100805.94;5046518;28;20064;-25
2023/03/17 05:12:14;;;;;;;2.08;1.38;;;;;;;17.02;39.54;100797.06;5044313;28;20057;-23
2023/03/17 05:14:41;;;;;;;2.22;1.50;;;;;;;17.02;38.75;100786.34;5041763;28;20131;-25
2023/03/17 05:17:08;;;;;;;2.05;1.35;;;;;;;17.01;39.03;100772.13;5038086;28;20043;-24
2023/03/17 05:19:34;;;;;;;1.98;1.50;;;;;;;17.01;38.58;100774.78;5050218;28;20048;-24
2023/03/17 05:22:01;;;;;;;2.33;1.42;;;;;;;17.01;38.95;100773.97;5046653;28;20052;-25
2023/03/17 05:24:28;;;;;;;2.58;1.45;;;;;;;17.01;39.30;100771.28;5050178;28;20049;-25
2023/03/17 05:26:54;;;;;;;3.10;1.30;;;;;;;17.02;39.20;100778.31;5050031;28;20057;-25
2023/03/17 05:29:21;;;;;;;1.83;1.35;;;;;;;17.01;39.60;100763.25;5048984;28;20400;-25
2023/03/17 05:31:47;;;;;;;2.30;1.70;;;;;;;17.01;39.18;100733.78;5049683;28;20432;-24
2023/03/17 05:34:14;;;;;;;1.33;1.20;;;;;;;17.01;38.70;100741.81;5049044;28;20163;-25
2023/03/17 05:36:42;;;;;;;2.63;1.48;;;;;;;17.01;39.38;100745.34;5050770;28;20045;-25
2023/03/17 05:39:09;;;;;;;4.25;1.98;;;;;;;17.00;39.04;100743.66;5050788;28;20053;-25
2023/03/17 05:41:35;;;;;;;2.25;1.42;;;;;;;17.00;38.52;100734.75;5050612;28;20519;-23
2023/03/17 05:44:02;;;;;;;2.33;1.73;;;;;;;17.00;38.75;100743.66;5046406;28;20052;-24
2023/03/17 05:46:28;;;;;;;3.15;1.77;;;;;;;16.99;39.04;100752.66;5051778;28;20068;-24
2023/03/17 05:48:55;;;;;;;2.80;1.50;;;;;;;16.98;39.18;100751.00;5050542;28;20088;-26
2023/03/17 05:51:21;;;;;;;3.53;1.73;;;;;;;16.99;39.25;100767.88;5053036;28;20445;-25
2023/03/17 05:53:48;;;;;;;3.90;1.27;;;;;;;16.98;38.96;100756.34;5053465;28;20059;-24
2023/03/17 05:56:15;;;;;;;2.15;1.33;;;;;;;16.98;39.38;100764.38;5052057;28;20454;-24
2023/03/17 05:58:41;;;;;;;3.67;1.75;;;;;;;16.96;38.69;100763.66;5047630;28;20294;-25
2023/03/17 06:01:08;;;;;;;3.72;1.40;;;;;;;16.97;38.88;100770.72;5049278;28;20044;-25
2023/03/17 06:03:37;;;;;;;2.50;1.83;;;;;;;16.97;38.55;100764.53;5054004;28;20055;-24
2023/03/17 06:06:04;;;;;;;2.85;1.58;;;;;;;16.97;39.39;100767.22;5053525;28;20044;-24
2023/03/17 06:08:31;;;;;;;2.40;1.42;;;;;;;16.97;39.38;100759.19;5050795;28;20060;-26
2023/03/17 06:10:57;;;;;;;2.85;1.70;;;;;;;16.95;39.24;100756.63;5049508;28;20049;-25
2023/03/17 06:13:24;;;;;;;2.97;1.73;;;;;;;16.95;38.73;100762.00;5049509;28;20059;-24
2023/03/17 06:15:51;;;;;;;2.60;1.45;;;;;;;16.95;39.56;100761.16;5052881;28;20066;-25
2023/03/17 06:18:18;;;;;;;2.58;1.45;;;;;;;16.95;38.79;100770.03;5053122;28;20059;-26
2023/03/17 06:20:45;;;;;;;1.88;1.40;;;;;;;16.95;39.25;100779.88;5053008;28;20063;-24
2023/03/17 06:23:12;;;;;;;3.15;1.83;;;;;;;16.95;38.43;100777.22;5050389;28;20088;-25
2023/03/17 06:25:39;;;;;;;2.20;1.35;;;;;;;16.96;39.25;100774.38;5052275;28;20049;-25
2023/03/17 06:28:05;;;;;;;2.33;1.60;;;;;;;16.96;38.52;100769.03;5054358;28;20363;-23
2023/03/17 06:30:33;;;;;;;4.13;1.75;;;;;;;16.97;39.47;100769.88;5052468;28;20467;-25
2023/03/17 06:33:01;;;;;;;4.22;1.38;;;;;;;16.97;39.04;100768.06;5052235;28;20056;-24
2023/03/17 06:35:29;;;;;;;4.60;1.55;;;;;;;16.98;38.88;100774.25;5052725;28;20710;-25
2023/03/17 06:37:56;;;;;;;4.15;1.67;;;;;;;16.97;39.47;100764.53;5053460;28;20045;-24
2023/03/17 06:40:23;;;;;;;5.35;2.25;;;;;;;16.98;38.60;100771.56;5052859;28;20053;-24
2023/03/17 06:42:50;;;;;;;3.40;2.00;;;;;;;16.98;39.72;100769.72;5050571;28;20073;-25
2023/03/17 06:45:17;;;;;;;2.95;1.50;;;;;;;16.99;39.52;100767.88;5051567;28;20053;-25
2023/03/17 06:47:44;;;;;;;4.00;1.60;;;;;;;16.99;39.37;100774.09;5053336;28;20049;-24
2023/03/17 06:50:11;;;;;;;2.67;1.83;;;;;;;16.99;39.27;100775.94;5050740;28;20053;-25
2023/03/17 06:52:38;;;;;;;2.88;1.75;;;;;;;17.00;38.99;100777.59;5051300;28;20099;-25
2023/03/17 06:55:06;;;;;;;2.97;1.60;;;;;;;17.01;39.48;100776.63;5051162;28;20083;-24
2023/03/17 06:57:32;;;;;;;2.60;1.60;;;;;;;17.02;39.12;100783.66;5051928;28;20080;-24
2023/03/17 06:59:59;;;;;;;2.88;1.88;;;;;;;17.01;39.48;100782.00;5053280;28;20413;-25
2023/03/17 07:02:26;;;;;;;3.28;1.95;;;;;;;17.03;39.25;100782.66;5050289;28;20049;-23
2023/03/17 07:04:52;;;;;;;3.15;1.63;;;;;;;17.04;39.01;100768.28;5052499;28;20049;-25
2023/03/17 07:07:19;;;;;;;3.10;1.80;;;;;;;17.05;39.36;100772.66;5052465;28;20122;-25
2023/03/17 07:09:46;;;;;;;4.10;1.50;;;;;;;17.06;38.88;100779.69;5050159;28;20060;-25
2023/03/17 07:12:13;;;;;;;3.35;1.83;;;;;;;17.09;38.76;100778.56;5051839;28;20052;-25
2023/03/17 07:14:40;;;;;;;2.45;1.67;;;;;;;17.09;39.07;100782.09;5049757;28;20068;-25
2023/03/17 07:17:10;;;;;;;3.35;1.77;;;;;;;17.10;39.05;100777.56;5051195;28;20048;-25
2023/03/17 07:19:41;;;;;;;2.65;1.70;;;;;;;17.11;39.19;100772.06;5053708;28;20147;-25
2023/03/17 07:22:10;;;;;;;3.90;2.00;;;;;;;17.13;38.89;100777.28;5051893;28;20045;-25
2023/03/17 07:24:37;;;;;;;5.28;2.33;;;;;;;17.14;39.01;100787.00;5048859;28;20049;-24
2023/03/17 07:27:04;;;;;;;3.88;1.70;;;;;;;17.15;38.70;100805.56;5051241;28;20052;-24
2023/03/17 07:29:32;;;;;;;3.97;2.00;;;;;;;17.16;39.21;100801.91;5050665;28;20057;-24
2023/03/17 07:32:00;;;;;;;4.90;2.00;;;;;;;17.17;38.97;100800.94;5052339;28;20139;-25
2023/03/17 07:34:27;;;;;;;3.60;2.25;;;;;;;17.18;39.49;100794.56;5047810;28;20048;-24
2023/03/17 07:36:53;;;;;;;3.45;2.10;;;;;;;17.18;39.67;100789.22;5043521;28;20076;-23
2023/03/17 07:39:23;;;;;;;4.32;2.75;;;;;;;17.19;39.48;100790.91;5049214;28;20049;-25
2023/03/17 07:41:53;;;;;;;4.78;2.28;;;;;;;17.19;39.27;100785.53;5047798;28;20045;-26
2023/03/17 07:44:21;;;;;;;4.97;2.40;;;;;;;17.20;39.34;100781.84;5048069;28;20104;-25
2023/03/17 07:46:49;;;;;;;4.93;2.15;;;;;;;17.22;39.31;100768.34;5049738;28;20049;-26
2023/03/17 07:49:16;;;;;;;3.38;2.05;;;;;;;17.23;39.27;100767.34;5047606;28;20111;-24
2023/03/17 07:51:45;;;;;;;4.72;2.20;;;;;;;17.23;39.50;100780.72;5050066;28;20128;-25
2023/03/17 07:54:13;;;;;;;3.42;2.05;;;;;;;17.24;39.26;100775.22;5051718;28;20448;-26
2023/03/17 07:56:41;;;;;;;3.92;2.20;;;;;;;17.24;39.13;100772.53;5047680;28;20044;-25
2023/03/17 07:59:09;;;;;;;5.15;2.00;;;;;;;17.27;39.26;100771.41;5049397;28;20131;-25
2023/03/17 08:01:37;;;;;;;3.40;1.80;;;;;;;17.28;39.19;100765.03;5052541;28;20044;-25
2023/03/17 08:04:04;;;;;;;4.00;2.13;;;;;;;17.31;39.31;100775.47;5052491;28;20533;-25
2023/03/17 08:06:31;;;;;;;8.52;2.10;;;;;;;17.34;39.82;100783.22;5051314;28;20045;-26
2023/03/17 08:09:00;;;;;;;4.32;2.40;;;;;;;17.37;39.58;100780.22;5051528;28;20049;-25
2023/03/17 08:11:27;;;;;;;7.35;2.88;;;;;;;17.39;39.13;100780.06;5052226;28;20136;-26
2023/03/17 08:13:55;;;;;;;2.60;1.90;;;;;;;17.41;39.31;100778.09;5051716;28;20048;-24
2023/03/17 08:16:21;;;;;;;4.47;2.40;;;;;;;17.45;39.82;100780.31;5050103;28;20309;-25
2023/03/17 08:18:48;;;;;;;4.40;2.35;;;;;;;17.50;39.57;100793.25;5050927;28;20443;-26
2023/03/17 08:21:15;;;;;;;4.07;2.33;;;;;;;17.55;39.18;100795.47;5052926;28;20536;-27
2023/03/17 08:23:42;;;;;;;4.88;2.53;;;;;;;17.59;39.48;100797.69;5051033;28;20072;-26
2023/03/17 08:26:09;;;;;;;4.35;2.47;;;;;;;17.64;39.78;100794.56;5050403;28;20351;-26
2023/03/17 08:28:36;;;;;;;4.25;2.30;;;;;;;17.67;39.38;100784.38;5046198;28;20128;-26
2023/03/17 08:31:11;;;;;;;5.15;2.53;;;;;;;17.72;39.56;100783.91;5051627;28;20413;-26
2023/03/17 08:33:42;;;;;;;4.05;2.33;;;;;;;17.75;39.43;100797.91;5049476;28;20863;-26
2023/03/17 08:36:10;;;;;;;4.35;2.28;;;;;;;17.81;39.71;100800.94;5050713;28;20456;-25
2023/03/17 08:38:38;;;;;;;3.75;2.30;;;;;;;17.85;39.49;100794.28;5051961;28;20052;-25
2023/03/17 08:41:07;;;;;;;6.22;2.60;;;;;;;17.89;39.76;100793.84;5049708;28;20124;-25
2023/03/17 08:43:35;;;;;;;5.25;2.33;;;;;;;17.92;39.47;100792.69;5048755;28;20049;-25
2023/03/17 08:46:07;;;;;;;3.53;2.03;;;;;;;17.96;39.72;100794.91;5051379;28;20420;-26
2023/03/17 08:48:35;;;;;;;5.57;2.38;;;;;;;18.00;40.01;100784.72;5048932;28;20076;-26
2023/03/17 08:51:04;;;;;;;6.15;2.20;;;;;;;18.04;39.92;100780.72;5050153;28;20083;-26
2023/03/17 08:53:31;;;;;;;3.65;2.33;;;;;;;18.07;39.66;100775.03;5051083;28;20063;-26
2023/03/17 08:55:58;;;;;;;3.42;2.03;;;;;;;18.11;39.46;100776.41;5050023;28;20128;-25
2023/03/17 08:58:25;;;;;;;5.25;2.72;;;;;;;18.15;39.58;100755.50;5051803;28;20132;-25
2023/03/17 09:00:52;;;;;;;4.78;2.40;;;;;;;18.18;39.66;100765.91;5050585;28;20057;-25
2023/03/17 09:03:19;;;;;;;3.63;2.17;;;;;;;18.19;39.40;100763.06;5050836;28;20434;-27
2023/03/17 09:05:47;;;;;;;4.00;2.50;;;;;;;18.22;39.48;100760.09;5050474;28;20879;-27
2023/03/17 09:08:14;;;;;;;6.25;2.50;;;;;;;18.25;39.22;100762.47;5051090;28;20055;-26
2023/03/17 09:10:40;;;;;;;3.88;2.33;;;;;;;18.29;39.42;100775.53;5048251;28;20052;-25
2023/03/17 09:13:10;;;;;;;3.22;1.80;;;;;;;18.32;39.70;100777.91;5050406;28;20049;-26
2023/03/17 09:15:37;;;;;;;3.85;2.20;;;;;;;18.34;38.98;100770.56;5049236;28;20059;-25
2023/03/17 09:18:05;;;;;;;3.33;2.25;;;;;;;18.36;39.41;100784.66;5045402;28;20045;-26
2023/03/17 09:20:32;;;;;;;3.22;1.95;;;;;;;18.38;39.49;100779.97;5040693;28;20053;-26
2023/03/17 09:23:00;;;;;;;3.83;2.17;;;;;;;18.42;39.19;100781.34;5049409;28;20053;-25
2023/03/17 09:25:26;;;;;;;4.28;2.28;;;;;;;18.43;39.53;100785.72;5049000;28;20131;-27
2023/03/17 09:27:54;;;;;;;3.35;2.00;;;;;;;18.45;39.25;100794.44;5051173;28;20152;-26
2023/03/17 09:30:21;;;;;;;3.65;2.10;;;;;;;18.48;39.42;100803.00;5055060;28;20045;-26
2023/03/17 09:32:47;;;;;;;4.93;2.45;;;;;;;18.50;39.13;100798.34;5052906;28;20045;-26
2023/03/17 09:35:16;;;;;;;4.85;2.20;;;;;;;18.53;39.49;100802.53;5051942;28;20369;-26
2023/03/17 09:37:42;;;;;;;5.57;2.20;;;;;;;18.57;39.54;100809.25;5050623;28;20368;-25
2023/03/17 09:40:15;;;;;;;2.85;1.80;;;;;;;18.60;39.93;100808.13;5053391;28;20052;-26
2023/03/17 09:42:51;;;;;;;3.63;1.90;;;;;;;18.65;39.23;100812.03;5051199;28;20372;-26
2023/03/17 09:45:33;;;;;;;4.35;2.25;;;;;;;18.70;39.64;100800.84;5053022;28;20436;-25
2023/03/17 09:48:07;;;;;;;4.85;2.03;;;;;;;18.77;39.77;100798.34;5050744;28;20120;-26
2023/03/17 09:50:56;;;;;;;4.65;2.20;;;;;;;18.81;39.71;100810.44;5053596;28;20052;-26
2023/03/17 09:53:34;;;;;;;3.35;1.98;;;;;;;18.85;39.64;100814.50;5053838;28;20136;-26
2023/03/17 09:56:06;;;;;;;4.40;2.17;;;;;;;18.87;39.63;100810.66;5048793;28;20065;-26
2023/03/17 09:58:35;;;;;;;3.65;2.05;;;;;;;18.89;39.72;100821.22;5046404;28;20048;-26
2023/03/17 10:01:04;;;;;;;3.28;2.22;;;;;;;18.90;39.86;100818.41;5055619;28;20045;-26
2023/03/17 10:03:31;;;;;;;3.53;1.92;;;;;;;18.92;39.59;100826.28;5050517;28;20052;-26
2023/03/17 10:06:32;;;;;;;3.33;1.90;;;;;;;18.93;39.95;100828.81;5049246;28;20461;-26
2023/03/17 10:09:04;;;;;;;4.15;2.30;;;;;;;18.96;39.94;100833.88;5048951;28;20053;-25
2023/03/17 10:11:39;;;;;;;4.03;2.58;;;;;;;18.99;39.92;100852.34;5052089;28;20056;-25
2023/03/17 10:14:15;;;;;;;3.90;2.33;;;;;;;19.04;39.69;100853.72;5048982;28;20049;-27
2023/03/17 10:16:53;;;;;;;4.07;2.08;;;;;;;19.08;39.94;100847.88;5052680;28;20049;-26
2023/03/17 10:19:31;;;;;;;3.65;2.45;;;;;;;19.12;39.43;100846.53;5051975;28;20551;-26
2023/03/17 10:22:04;;;;;;;3.88;2.10;;;;;;;19.16;39.85;100852.44;5053959;28;20083;-27
2023/03/17 10:24:32;;;;;;;2.77;1.83;;;;;;;19.20;40.03;100859.16;5054792;28;20052;-27
2023/03/17 10:27:05;;;;;;;5.78;2.08;;;;;;;19.24;39.90;100858.69;5053739;28;20049;-27
2023/03/17 10:29:32;;;;;;;4.45;2.10;;;;;;;19.30;40.25;100856.38;5053168;28;20049;-26
2023/03/17 10:31:58;;;;;;;6.20;2.17;;;;;;;19.34;40.27;100853.19;5054555;28;20045;-26
2023/03/17 10:34:31;;;;;;;3.08;1.77;;;;;;;19.38;39.49;100865.31;5051849;28;20061;-27
2023/03/17 10:37:05;;;;;;;4.80;2.10;;;;;;;19.39;40.58;100868.84;5050001;28;20049;-27
2023/03/17 10:39:43;;;;;;;3.58;2.00;;;;;;;19.40;40.07;100865.97;5051378;28;20459;-26
2023/03/17 10:42:22;;;;;;;4.93;2.10;;;;;;;19.41;40.33;100872.19;5048340;28;20427;-27
2023/03/17 10:45:00;;;;;;;3.67;1.90;;;;;;;19.41;39.89;100866.81;5047093;28;20052;-26
2023/03/17 10:47:36;;;;;;;3.50;2.22;;;;;;;19.40;40.25;100865.13;5049948;28;20162;-28
2023/03/17 10:50:19;;;;;;;2.92;2.03;;;;;;;19.40;40.53;100860.59;5048749;28;20344;-26
2023/03/17 10:52:51;;;;;;;4.43;2.05;;;;;;;19.42;40.18;100857.78;5049397;28;20057;-26
2023/03/17 10:55:22;;;;;;;3.42;1.90;;;;;;;19.42;40.51;100852.41;5051043;28;20052;-27
2023/03/17 10:58:11;;;;;;;3.58;1.95;;;;;;;19.41;40.85;100854.22;5049760;28;20440;-27
2023/03/17 11:00:38;;;;;;;3.08;1.95;;;;;;;19.42;41.21;100852.41;5047168;28;20056;-27
2023/03/17 11:03:17;;;;;;;4.53;2.25;;;;;;;19.40;40.74;100846.31;5048720;28;20127;-27
2023/03/17 11:06:07;;;;;;;3.95;2.25;;;;;;;19.39;40.99;100834.72;5047036;28;20055;-26
2023/03/17 11:08:56;;;;;;;5.20;2.08;;;;;;;19.40;41.02;100832.88;5053044;28;20048;-26
2023/03/17 11:11:29;;;;;;;5.03;2.60;;;;;;;19.39;41.45;100825.84;5051907;28;20053;-27
2023/03/17 11:14:10;;;;;;;3.47;2.05;;;;;;;19.38;41.28;100818.78;5046816;28;20154;-27
2023/03/17 11:16:45;;;;;;;3.33;2.20;;;;;;;19.37;41.32;100820.59;5050383;28;20134;-27
2023/03/17 11:19:15;;;;;;;3.25;2.03;;;;;;;19.36;41.53;100818.94;5050984;28;20494;-27
2023/03/17 11:21:59;;;;;;;3.88;2.10;;;;;;;19.35;41.54;100811.88;5049011;28;20076;-27
2023/03/17 11:24:32;;;;;;;4.30;2.10;;;;;;;19.35;41.33;100809.19;5050990;28;20057;-25
2023/03/17 11:27:09;;;;;;;3.42;2.15;;;;;;;19.36;41.43;100810.88;5052291;28;20402;-26
2023/03/17 11:29:50;;;;;;;5.00;1.92;;;;;;;19.38;41.55;100808.03;5048411;28;20095;-27
2023/03/17 11:32:20;;;;;;;3.92;2.35;;;;;;;19.43;41.36;100801.16;5049660;28;20140;-26
2023/03/17 11:34:51;;;;;;;3.92;1.92;;;;;;;19.49;41.53;100796.94;5047687;28;20045;-25